Time;durP1;ratioP1;P1;durP2;ratioP2;P2;SDS_P1;SDS_P2;PMS_P1;PMS_P2;Temp;Humidity;BMP_temperature;BMP_pressure;BME280_temperature;BME280_humidity;BME280_pressure;Samples;Min_cycle;Max_cycle;Signal;HPM_P1;HPM_P2
2023/10/25 00:07:07;;;;;;;0.60;0.50;;;;;;;;;;20642756;28;20243;-85
2023/10/25 00:17:09;;;;;;;0.93;0.50;;;;;;;;;;20655661;28;20697;-85
2023/10/25 00:27:17;;;;;;;1.17;0.50;;;;;;;;;;20627436;28;20629;-88
2023/10/25 00:37:19;;;;;;;1.13;0.60;;;;;;;;;;20650718;28;20220;-88
2023/10/25 00:47:20;;;;;;;0.83;0.60;;;;;;;;;;20673582;28;20216;-88
2023/10/25 00:57:22;;;;;;;3.30;0.70;;;;;;;;;;20665290;28;20295;-87
2023/10/25 01:07:24;;;;;;;1.20;0.63;;;;;;;;;;20685829;28;20200;-87
2023/10/25 01:17:26;;;;;;;0.70;0.33;;;;;;;;;;20623125;28;20271;-86
2023/10/25 01:27:27;;;;;;;0.60;0.53;;;;;;;;;;20652646;28;20306;-86
2023/10/25 01:37:29;;;;;;;1.00;0.70;;;;;;;;;;20633052;28;20223;-87
2023/10/25 01:47:31;;;;;;;0.90;0.50;;;;;;;;;;20635160;28;20266;-86
2023/10/25 01:57:32;;;;;;;2.60;0.70;;;;;;;;;;20604749;28;20301;-87
2023/10/25 02:07:35;;;;;;;0.63;0.50;;;;;;;;;;20630647;28;20212;-87
2023/10/25 02:17:37;;;;;;;0.83;0.50;;;;;;;;;;20613035;28;20227;-86
2023/10/25 02:27:39;;;;;;;1.27;0.60;;;;;;;;;;20618070;28;20208;-86
2023/10/25 02:37:41;;;;;;;0.83;0.50;;;;;;;;;;20616526;28;20243;-86
2023/10/25 02:47:43;;;;;;;0.93;0.60;;;;;;;;;;20631801;28;20215;-86
2023/10/25 02:57:44;;;;;;;1.07;0.70;;;;;;;;;;20631083;28;20661;-86
2023/10/25 03:07:47;;;;;;;0.80;0.57;;;;;;;;;;20642166;28;20766;-87
2023/10/25 03:17:48;;;;;;;3.60;0.80;;;;;;;;;;20618075;28;20811;-86
2023/10/25 03:27:50;;;;;;;1.33;0.70;;;;;;;;;;20646947;28;20240;-88
2023/10/25 03:37:52;;;;;;;1.77;0.90;;;;;;;;;;20605302;28;20286;-88
2023/10/25 03:47:54;;;;;;;2.43;1.00;;;;;;;;;;20634257;28;20617;-88
2023/10/25 03:57:56;;;;;;;1.50;0.80;;;;;;;;;;20635941;28;20250;-89
2023/10/25 04:07:58;;;;;;;4.70;1.03;;;;;;;;;;20631070;28;20216;-89
2023/10/25 04:18:00;;;;;;;1.27;0.87;;;;;;;;;;20664531;28;20232;-89
2023/10/25 04:28:01;;;;;;;6.20;1.33;;;;;;;;;;20657983;28;20290;-89
2023/10/25 04:38:03;;;;;;;5.87;1.63;;;;;;;;;;20643170;28;20640;-89
2023/10/25 04:48:05;;;;;;;8.33;1.90;;;;;;;;;;20655444;28;20207;-89
2023/10/25 04:58:07;;;;;;;2.23;1.40;;;;;;;;;;20641918;28;20302;-89
2023/10/25 05:08:09;;;;;;;6.93;2.00;;;;;;;;;;20643817;28;20270;-88
2023/10/25 05:18:11;;;;;;;8.07;2.17;;;;;;;;;;20663221;28;20278;-88
2023/10/25 05:28:13;;;;;;;4.70;1.17;;;;;;;;;;20623341;28;20274;-89
2023/10/25 05:38:15;;;;;;;6.80;1.67;;;;;;;;;;20631962;28;20309;-88
2023/10/25 05:48:17;;;;;;;3.73;1.77;;;;;;;;;;20618886;28;20681;-86
2023/10/25 05:58:19;;;;;;;5.60;1.83;;;;;;;;;;20649351;28;20236;-85
2023/10/25 06:08:21;;;;;;;4.47;1.90;;;;;;;;;;20644778;28;20223;-86
2023/10/25 06:18:23;;;;;;;2.00;1.10;;;;;;;;;;20630832;28;20224;-85
2023/10/25 06:28:24;;;;;;;5.50;1.97;;;;;;;;;;20629947;28;20270;-86
2023/10/25 06:38:26;;;;;;;5.73;1.47;;;;;;;;;;20627363;28;20220;-85
2023/10/25 06:48:28;;;;;;;5.10;1.70;;;;;;;;;;20625125;28;20240;-86
2023/10/25 06:58:30;;;;;;;2.20;1.70;;;;;;;;;;20643424;28;20224;-85
2023/10/25 07:08:31;;;;;;;2.23;1.40;;;9.60;99.90;;;;;;20612084;28;20279;-85
2023/10/25 07:18:33;;;;;;;1.93;1.17;;;;;;;;;;20624463;28;20228;-86
2023/10/25 07:28:35;;;;;;;3.90;2.20;;;;;;;;;;20625831;28;20644;-86
2023/10/25 07:38:37;;;;;;;2.10;1.70;;;;;;;;;;20640763;28;20231;-85
2023/10/25 07:48:40;;;;;;;3.27;1.10;;;;;;;;;;20615185;28;20220;-84
2023/10/25 07:58:43;;;;;;;2.43;1.63;;;;;;;;;;20596240;28;20314;-86
2023/10/25 08:08:45;;;;;;;1.60;0.90;;;;;;;;;;20632427;28;20255;-85
2023/10/25 08:18:46;;;;;;;1.73;1.10;;;;;;;;;;20629643;28;20215;-86
2023/10/25 08:28:48;;;;;;;1.80;0.90;;;;;;;;;;20632988;28;20220;-86
2023/10/25 08:38:50;;;;;;;1.53;1.13;;;;;;;;;;20616940;28;20235;-85
2023/10/25 08:48:55;;;;;;;1.07;0.80;;;;;;;;;;20633796;28;20382;-86
2023/10/25 08:59:00;;;;;;;1.20;0.83;;;;;;;;;;20610998;28;20282;-86
2023/10/25 09:09:05;;;;;;;1.40;1.00;;;;;;;;;;20627645;28;20286;-86
2023/10/25 09:19:07;;;;;;;1.13;0.90;;;;;;;;;;20644604;28;20242;-86
2023/10/25 09:29:11;;;;;;;2.33;1.03;;;;;;;;;;20621984;28;20248;-87
2023/10/25 09:39:13;;;;;;;1.67;0.83;;;;;;;;;;20625191;28;20286;-86
2023/10/25 09:49:15;;;;;;;2.93;1.20;;;;;;;;;;20609897;28;20229;-86
2023/10/25 09:59:19;;;;;;;1.30;1.00;;;;;;;;;;20624265;28;20748;-86
2023/10/25 10:09:54;;;;;;;0.93;0.73;;;10.50;99.90;;;;;;20619559;28;20211;-85
2023/10/25 10:19:57;;;;;;;1.67;0.90;;;;;;;;;;20621594;28;20240;-86
2023/10/25 10:29:59;;;;;;;2.93;1.67;;;;;;;;;;20641080;28;20278;-86
2023/10/25 10:40:03;;;;;;;2.03;1.10;;;;;;;;;;20669831;28;20227;-86
2023/10/25 10:50:09;;;;;;;3.10;1.10;;;;;;;;;;20683197;28;20259;-86
2023/10/25 11:00:13;;;;;;;1.37;0.90;;;;;;;;;;20638542;28;20338;-83
2023/10/25 11:10:15;;;;;;;3.67;2.20;;;;;;;;;;20609545;28;20225;-85
2023/10/25 11:20:17;;;;;;;1.73;1.10;;;;;;;;;;20662955;28;20664;-84
2023/10/25 11:30:19;;;;;;;3.00;1.30;;;;;;;;;;20647800;28;20223;-84
2023/10/25 11:40:34;;;;;;;1.47;1.10;;;;;;;;;;20632528;28;20220;-83
2023/10/25 11:50:36;;;;;;;1.20;0.73;;;;;;;;;;20649455;28;20567;-84
2023/10/25 12:00:38;;;;;;;1.10;0.70;;;;;;;;;;20608702;28;20227;-84
2023/10/25 12:10:40;;;;;;;1.47;1.00;;;;;;;;;;20602947;28;20686;-84
2023/10/25 12:20:41;;;;;;;2.30;1.23;;;;;;;;;;20631649;28;20223;-85
2023/10/25 12:30:43;;;;;;;2.37;1.60;;;;;;;;;;20668019;28;20678;-85
2023/10/25 12:40:45;;;;;;;2.70;1.40;;;;;;;;;;20648223;28;20224;-85
2023/10/25 12:50:47;;;;;;;1.30;0.93;;;;;;;;;;20657761;28;20265;-85
2023/10/25 13:00:48;;;;;;;1.00;0.77;;;;;;;;;;20644364;28;20294;-85
2023/10/25 13:10:50;;;;;;;1.07;0.70;;;;;;;;;;20632124;28;20690;-85
2023/10/25 13:20:52;;;;;;;1.47;0.80;;;;;;;;;;20679977;28;20255;-85
2023/10/25 13:30:54;;;;;;;4.73;1.40;;;;;;;;;;20640045;28;20753;-85
2023/10/25 13:40:56;;;;;;;1.83;1.20;;;;;;;;;;20623947;28;20651;-85
2023/10/25 13:50:58;;;;;;;1.30;0.90;;;;;;;;;;20632423;28;20220;-85
2023/10/25 14:01:03;;;;;;;1.70;1.10;;;;;;;;;;20644914;28;20291;-86
2023/10/25 14:11:06;;;;;;;1.83;1.07;;;;;;;;;;20639093;28;20215;-85
2023/10/25 14:21:09;;;;;;;1.23;0.77;;;;;;;;;;20624133;28;20227;-85
2023/10/25 14:31:17;;;;;;;1.27;0.70;;;;;;;;;;20654423;28;20666;-85
2023/10/25 14:41:19;;;;;;;1.30;0.90;;;;;;;;;;20665840;28;20235;-86
2023/10/25 14:51:25;;;;;;;0.80;0.63;;;;;;;;;;20628048;28;20196;-86
2023/10/25 15:01:27;;;;;;;1.87;1.03;;;;;;;;;;20626700;28;20546;-87
2023/10/25 15:11:29;;;;;;;2.30;1.13;;;;;;;;;;20628624;28;20220;-86
2023/10/25 15:21:31;;;;;;;1.20;0.73;;;;;;;;;;20623887;28;20274;-87
2023/10/25 15:31:34;;;;;;;2.10;0.70;;;;;;;;;;20665409;28;20219;-86
2023/10/25 15:41:36;;;;;;;2.40;1.27;;;;;;;;;;20662757;28;20243;-88
2023/10/25 15:51:38;;;;;;;0.67;0.53;;;;;;;;;;20675486;28;20207;-86
2023/10/25 16:01:40;;;;;;;0.50;0.30;;;;;;;;;;20623848;28;20282;-85
2023/10/25 16:11:42;;;;;;;0.90;0.60;;;;;;;;;;20656704;28;20228;-86
2023/10/25 16:21:45;;;;;;;0.60;0.50;;;;;;;;;;20659368;28;20262;-86
2023/10/25 16:31:47;;;;;;;2.00;0.40;;;;;;;;;;20700483;28;20256;-85
2023/10/25 16:41:48;;;;;;;1.50;0.50;;;;;;;;;;20622510;28;20834;-87
2023/10/25 16:51:50;;;;;;;0.30;0.30;;;;;;;;;;20634510;28;20309;-86
2023/10/25 17:01:52;;;;;;;0.80;0.50;;;;;;;;;;20631124;28;20251;-87
2023/10/25 17:11:53;;;;;;;1.17;0.63;;;;;;;;;;20642188;28;20220;-85
2023/10/25 17:21:55;;;;;;;2.03;0.83;;;;;;;;;;20695970;28;20240;-86
2023/10/25 17:31:57;;;;;;;1.03;0.67;;;;;;;;;;20638276;28;20227;-86
2023/10/25 17:41:59;;;;;;;0.60;0.43;;;;;;;;;;20648277;28;20232;-85
2023/10/25 17:52:01;;;;;;;0.57;0.40;;;;;;;;;;20648694;28;20309;-85
2023/10/25 18:02:03;;;;;;;0.60;0.40;;;;;;;;;;20647997;28;20942;-87
2023/10/25 18:12:05;;;;;;;0.30;0.30;;;;;;;;;;20613195;28;20228;-86
2023/10/25 18:22:07;;;;;;;1.50;0.40;;;;;;;;;;20664846;28;20224;-87
2023/10/25 18:32:09;;;;;;;0.57;0.40;;;;;;;;;;20641570;28;20223;-87
2023/10/25 18:42:11;;;;;;;5.00;2.83;;;;;;;;;;20654991;28;20310;-86
2023/10/25 18:52:13;;;;;;;1.30;0.83;;;;;;;;;;20665333;28;20278;-87
2023/10/25 19:02:15;;;;;;;0.57;0.30;;;;;;;;;;20621380;28;20231;-87
2023/10/25 19:12:19;;;;;;;0.27;0.20;;;;;;;;;;20642593;28;20239;-87
2023/10/25 19:22:20;;;;;;;0.77;0.23;;;;;;;;;;20641130;28;20285;-88
2023/10/25 19:32:23;;;;;;;0.23;0.20;;;;;;;;;;20648532;28;20597;-87
2023/10/25 19:42:25;;;;;;;0.20;0.20;;;;;;;;;;20657148;28;20306;-86
2023/10/25 19:52:26;;;;;;;0.20;0.20;;;;;;;;;;20633225;28;20227;-85
2023/10/25 20:02:29;;;;;;;0.20;0.20;;;;;;;;;;20620817;28;20278;-85
2023/10/25 20:12:31;;;;;;;0.20;0.20;;;;;;;;;;20656267;28;20306;-88
2023/10/25 20:22:36;;;;;;;0.20;0.20;;;;;;;;;;20609444;28;20251;-88
2023/10/25 20:32:38;;;;;;;0.20;0.20;;;;;;;;;;20688080;28;20607;-88
2023/10/25 20:42:40;;;;;;;0.20;0.20;;;;;;;;;;20653764;28;20297;-89
2023/10/25 20:52:42;;;;;;;0.30;0.30;;;;;;;;;;20654508;28;20282;-87
2023/10/25 21:02:44;;;;;;;0.30;0.20;;;;;;;;;;20658726;28;20212;-87
2023/10/25 21:12:45;;;;;;;0.30;0.30;;;;;;;;;;20672050;28;20212;-88
2023/10/25 21:22:48;;;;;;;0.20;0.20;;;;;;;;;;20634948;28;20639;-86
2023/10/25 21:32:49;;;;;;;0.70;0.30;;;;;;;;;;20669974;28;20212;-86
2023/10/25 21:42:51;;;;;;;0.20;0.20;;;;;;;;;;20656755;28;20251;-87
2023/10/25 21:52:53;;;;;;;0.30;0.30;;;;;;;;;;20667062;28;20228;-86
2023/10/25 22:02:55;;;;;;;0.63;0.40;;;;;;;;;;20648912;28;20294;-86
2023/10/25 22:12:56;;;;;;;0.20;0.20;;;;;;;;;;20668746;28;20270;-86
2023/10/25 22:22:58;;;;;;;0.20;0.20;;;;;;;;;;20628234;28;20228;-88
2023/10/25 22:33:00;;;;;;;0.63;0.23;;;;;;;;;;20626848;28;20243;-88
2023/10/25 22:43:01;;;;;;;0.27;0.20;;;;;;;;;;20639285;28;20701;-88
2023/10/25 22:53:03;;;;;;;0.30;0.30;;;;;;;;;;20645345;28;20519;-88
2023/10/25 23:03:05;;;;;;;0.47;0.30;;;;;;;;;;20617161;28;20235;-87
2023/10/25 23:13:06;;;;;;;0.37;0.30;;;;;;;;;;20635955;28;20220;-88
2023/10/25 23:23:08;;;;;;;0.20;0.20;;;;;;;;;;20639631;28;20228;-88
2023/10/25 23:33:10;;;;;;;0.20;0.20;;;;;;;;;;20664920;28;20265;-87
2023/10/25 23:43:11;;;;;;;0.20;0.20;;;;;;;;;;20650514;28;20302;-87
2023/10/25 23:53:14;;;;;;;0.20;0.20;;;;;;;;;;20650676;28;20223;-87
